Terminal Aerodrome Forecast
Issued by NWS Rapid City, SD

Home | Current Version | Previous Version | Graphics & Text | Print | Product List | Glossary On
Versions: 1 2 3 4 5 6 7 8 9 10 11 12 13 14 15
000
FTUS43 KUNR 261500 AAA
TAFRAP
TAF AMD
KRAP 261507Z 2615/2712 01012KT P6SM -SN FEW009 OVC025
     FM261700 36008KT P6SM SCT025
     FM262000 VRB04KT P6SM SKC=

USA.gov is the U.S. government's official web portal to all federal, state and local government web resources and services.